Time;durP1;ratioP1;P1;durP2;ratioP2;P2;SDS_P1;SDS_P2;PMS_P1;PMS_P2;Temp;Humidity;BMP_temperature;BMP_pressure;BME280_temperature;BME280_humidity;BME280_pressure;Samples;Min_cycle;Max_cycle;Signal;HPM_P1;HPM_P2
2021/07/25 00:01:28;;;;;;;22.87;7.75;;;;;;;20.53;74.19;100948.91;1729738;81;21487;-60
2021/07/25 00:03:55;;;;;;;16.55;6.87;;;;;;;20.47;74.87;100961.16;1727108;81;21048;-60
2021/07/25 00:06:22;;;;;;;15.03;7.25;;;;;;;20.41;75.37;100959.74;1735026;81;21789;-60
2021/07/25 00:08:49;;;;;;;20.62;7.67;;;;;;;20.37;75.63;100955.98;1729626;81;21312;-60
2021/07/25 00:11:18;;;;;;;20.45;7.85;;;;;;;20.29;76.68;100953.34;1731732;80;21071;-61
2021/07/25 00:13:51;;;;;;;18.35;8.05;;;;;;;20.22;77.27;100948.45;1738906;80;20974;-60
2021/07/25 00:16:15;;;;;;;17.90;8.38;;;;;;;20.17;78.24;100961.03;1742698;80;20979;-60
2021/07/25 00:18:42;;;;;;;19.65;8.38;;;;;;;20.16;79.13;100953.84;1735464;81;21106;-61
2021/07/25 00:21:09;;;;;;;15.78;8.05;;;;;;;20.11;79.38;100950.59;1734319;80;21059;-60
2021/07/25 00:23:37;;;;;;;22.60;8.15;;;;;;;20.06;79.76;100950.06;1733979;81;21094;-59
2021/07/25 00:26:06;;;;;;;18.25;8.50;;;;;;;20.00;80.05;100945.42;1733182;80;20963;-59
2021/07/25 00:28:33;;;;;;;27.77;7.97;;;;;;;19.95;80.55;100942.17;1733083;81;21048;-60
2021/07/25 00:31:02;;;;;;;22.00;8.55;;;;;;;19.90;80.97;100941.60;1741058;80;21112;-62
2021/07/25 00:33:31;;;;;;;21.15;8.63;;;;;;;19.88;81.27;100944.92;1733279;80;20979;-61
2021/07/25 00:35:59;;;;;;;20.65;8.03;;;;;;;19.84;81.61;100942.91;1726068;81;22269;-63
2021/07/25 00:38:26;;;;;;;25.15;8.28;;;;;;;19.84;81.83;100950.21;1738148;80;21614;-62
2021/07/25 00:40:57;;;;;;;26.57;8.25;;;;;;;19.82;81.95;100941.30;1732513;81;21061;-63
2021/07/25 00:43:27;;;;;;;23.77;8.10;;;;;;;19.83;81.99;100943.03;1737700;80;21112;-63
2021/07/25 00:45:55;;;;;;;16.57;7.33;;;;;;;19.82;81.93;100950.81;1736200;80;21290;-63
2021/07/25 00:48:23;;;;;;;18.23;7.58;;;;;;;19.81;81.92;100940.41;1752413;80;20942;-63
2021/07/25 00:50:50;;;;;;;21.50;7.80;;;;;;;19.82;81.81;100942.66;1710056;80;21739;-63
2021/07/25 00:53:18;;;;;;;21.07;7.75;;;;;;;19.82;81.80;100944.02;1739568;80;21059;-62
2021/07/25 00:55:45;;;;;;;20.40;7.70;;;;;;;19.76;81.88;100946.67;1735028;80;20931;-61
2021/07/25 00:58:12;;;;;;;25.62;7.90;;;;;;;19.72;82.13;100948.73;1710222;81;21528;-62
2021/07/25 01:00:39;;;;;;;19.17;8.58;;;;;;;19.74;82.52;100947.27;1743073;80;22077;-61
2021/07/25 01:03:37;;;;;;;22.25;7.70;;;;;;;19.74;82.63;100949.99;1734128;80;21099;-61
2021/07/25 01:06:25;;;;;;;21.30;8.15;;;;;;;19.77;82.63;100952.49;1748266;80;20908;-63
2021/07/25 01:09:02;;;;;;;27.52;8.23;;;;;;;19.79;82.66;100952.39;1733262;81;21192;-63
2021/07/25 01:11:42;;;;;;;29.63;8.68;;;;;;;19.79;82.76;100955.12;1735018;80;21060;-62
2021/07/25 01:14:09;;;;;;;30.10;8.48;;;;;;;19.82;83.07;100960.33;1726555;81;21584;-63
2021/07/25 01:16:38;;;;;;;34.10;9.35;;;;;;;19.81;83.06;100958.59;1666441;84;21548;-62
2021/07/25 01:19:05;;;;;;;27.05;8.40;;;;;;;19.80;83.25;100959.58;1730772;81;20918;-63
2021/07/25 01:21:32;;;;;;;29.05;8.68;;;;;;;19.79;83.37;100958.69;1733964;81;21739;-63
2021/07/25 01:23:59;;;;;;;23.67;7.60;;;;;;;19.78;83.40;100956.95;1731214;81;20926;-62
2021/07/25 01:26:29;;;;;;;23.02;8.03;;;;;;;19.78;83.54;100956.06;1724163;81;20980;-63
2021/07/25 01:28:58;;;;;;;31.23;9.68;;;;;;;19.73;83.75;100953.70;1728229;81;20912;-62
2021/07/25 01:31:38;;;;;;;38.28;9.03;;;;;;;19.71;83.85;100961.09;1680073;82;20899;-63
2021/07/25 01:34:05;;;;;;;29.55;9.10;;;;;;;19.70;84.00;100956.13;1731064;81;21500;-62
2021/07/25 01:36:33;;;;;;;27.77;9.08;;;;;;;19.70;84.13;100960.20;1730571;81;20895;-63
2021/07/25 01:39:00;;;;;;;19.65;7.80;;;;;;;19.70;83.97;100969.73;1723521;81;21434;-63
2021/07/25 01:41:27;;;;;;;21.50;8.20;;;;;;;19.69;83.98;100963.05;1729809;81;20921;-63
2021/07/25 01:43:54;;;;;;;29.65;7.78;;;;;;;19.69;83.98;100967.98;1724330;81;21001;-64
2021/07/25 01:46:21;;;;;;;19.87;8.13;;;;;;;19.71;84.09;100968.75;1727894;81;21759;-61
2021/07/25 01:48:49;;;;;;;29.85;8.13;;;;;;;19.71;84.17;100972.83;1731269;81;20909;-61
2021/07/25 01:53:48;;;;;;;20.97;8.05;;;;;;;19.68;84.52;100978.48;1734143;81;20965;-61
2021/07/25 01:56:14;;;;;;;29.60;8.98;;;;;;;19.66;84.73;100973.65;1664457;84;20947;-61
2021/07/25 01:58:41;;;;;;;21.80;8.28;;;;;;;19.65;84.79;100980.06;1692026;82;21568;-61
2021/07/25 02:01:08;;;;;;;32.73;8.15;;;;;;;19.67;84.88;100979.47;1692924;82;20977;-61
2021/07/25 02:03:37;;;;;;;24.43;7.97;;;;;;;19.68;84.93;100983.92;1691362;82;20956;-63
2021/07/25 02:06:03;;;;;;;30.30;8.45;;;;;;;19.69;84.94;100991.11;1727905;81;21333;-63
2021/07/25 02:08:30;;;;;;;27.42;8.55;;;;;;;19.65;84.97;100988.23;1730333;81;20920;-61
2021/07/25 02:10:57;;;;;;;26.60;8.60;;;;;;;19.64;84.99;100987.84;1727611;81;21324;-64
2021/07/25 02:13:24;;;;;;;25.55;8.18;;;;;;;19.61;85.11;100992.14;1735816;81;20928;-64
2021/07/25 02:15:51;;;;;;;24.60;8.95;;;;;;;19.57;85.42;100989.27;1725819;81;21004;-63
2021/07/25 02:18:19;;;;;;;20.00;8.35;;;;;;;19.55;85.65;100987.99;1729560;81;21051;-64
2021/07/25 02:20:48;;;;;;;25.30;9.25;;;;;;;19.54;85.90;100987.61;1728653;81;21023;-62
2021/07/25 02:23:16;;;;;;;29.87;8.63;;;;;;;19.54;85.98;100981.29;1732165;81;21557;-64
2021/07/25 02:25:43;;;;;;;23.12;8.28;;;;;;;19.54;86.10;100985.37;1730357;81;20865;-63
2021/07/25 02:28:10;;;;;;;17.85;8.35;;;;;;;19.56;85.86;100991.56;1728169;81;20896;-63
2021/07/25 02:30:37;;;;;;;23.85;8.43;;;;;;;19.57;85.75;100989.27;1728189;81;21475;-61
2021/07/25 02:33:04;;;;;;;33.73;8.38;;;;;;;19.60;85.86;100989.05;1727214;81;21026;-63
2021/07/25 02:35:32;;;;;;;33.33;8.60;;;;;;;19.62;85.81;100992.52;1729653;81;21087;-63
2021/07/25 02:37:59;;;;;;;32.50;8.45;;;;;;;19.63;85.77;100994.27;1721979;81;21020;-63
2021/07/25 02:40:26;;;;;;;19.75;8.50;;;;;;;19.61;85.67;101001.66;1721743;81;21273;-64
2021/07/25 02:42:53;;;;;;;30.80;8.13;;;;;;;19.56;85.82;101002.45;1725840;81;22354;-63
2021/07/25 02:45:23;;;;;;;26.27;8.13;;;;;;;19.52;86.14;101000.92;1723169;81;21087;-63
2021/07/25 02:47:50;;;;;;;21.62;8.15;;;;;;;19.47;86.37;101003.47;1726847;81;21125;-63
2021/07/25 02:50:17;;;;;;;20.50;8.58;;;;;;;19.51;86.63;101004.62;1725510;81;21439;-63
2021/07/25 02:52:45;;;;;;;20.65;8.00;;;;;;;19.55;86.52;101000.70;1721880;81;21141;-62
2021/07/25 02:55:12;;;;;;;26.95;10.13;;;;;;;19.57;86.42;101009.66;1719489;81;21147;-62
2021/07/25 02:57:39;;;;;;;29.95;8.30;;;;;;;19.61;86.09;101008.46;1727921;81;21922;-62
2021/07/25 03:00:08;;;;;;;20.72;8.48;;;;;;;19.63;85.91;101009.22;1732376;81;21434;-62
2021/07/25 03:02:40;;;;;;;24.67;8.25;;;;;;;19.65;85.77;101015.42;1722776;81;21508;-62
2021/07/25 03:05:06;;;;;;;20.15;8.55;;;;;;;19.70;85.65;101020.05;1733858;81;20964;-62
2021/07/25 03:07:33;;;;;;;23.60;8.65;;;;;;;19.72;84.74;101011.28;1723220;81;20944;-62
2021/07/25 03:10:00;;;;;;;19.57;8.08;;;;;;;19.79;84.76;101017.69;1730133;81;20979;-62
2021/07/25 03:12:28;;;;;;;19.75;7.60;;;;;;;19.84;84.71;101020.95;1729218;81;21485;-62
2021/07/25 03:14:55;;;;;;;30.25;8.55;;;;;;;19.86;84.71;101028.00;1737551;80;21363;-62
2021/07/25 03:17:22;;;;;;;33.30;8.15;;;;;;;19.90;84.63;101031.39;1737374;80;20955;-64
2021/07/25 03:19:49;;;;;;;25.30;8.60;;;;;;;19.91;84.28;101025.00;1737745;79;21379;-62
2021/07/25 03:22:20;;;;;;;28.62;8.18;;;;;;;19.96;84.02;101024.18;1728587;81;21317;-62
2021/07/25 03:24:48;;;;;;;34.23;8.90;;;;;;;20.04;83.56;101029.97;1735395;80;21542;-62
2021/07/25 03:27:15;;;;;;;38.75;8.70;;;;;;;20.15;83.09;101037.84;1744136;80;20929;-62
2021/07/25 03:29:43;;;;;;;28.17;8.35;;;;;;;20.23;82.80;101037.30;1731655;80;20892;-62
2021/07/25 03:32:12;;;;;;;27.90;8.45;;;;;;;20.30;82.48;101040.84;1730358;80;20940;-62
2021/07/25 03:34:41;;;;;;;37.48;9.33;;;;;;;20.40;82.38;101036.97;1744349;80;20935;-62
2021/07/25 03:37:08;;;;;;;22.90;8.43;;;;;;;20.51;81.93;101041.64;1743499;80;21370;-62
2021/07/25 03:39:35;;;;;;;38.15;8.30;;;;;;;20.61;81.50;101048.14;1744499;80;21480;-62
2021/07/25 03:42:03;;;;;;;32.50;8.78;;;;;;;20.72;81.15;101050.59;1750997;80;21038;-62
2021/07/25 03:44:31;;;;;;;25.08;8.58;;;;;;;20.80;80.51;101037.29;1743911;80;21114;-62
2021/07/25 03:46:59;;;;;;;24.10;8.25;;;;;;;20.86;80.08;101045.51;1747840;80;20899;-63
2021/07/25 03:49:26;;;;;;;29.20;9.00;;;;;;;20.89;79.89;101043.44;1753736;80;21086;-62
2021/07/25 03:51:53;;;;;;;31.48;8.90;;;;;;;20.94;79.76;101038.13;1748993;80;22251;-63
2021/07/25 03:56:59;;;;;;;24.60;8.75;;;;;;;21.11;79.44;101046.40;1743873;80;21372;-62
2021/07/25 03:59:27;;;;;;;44.03;9.28;;;;;;;21.20;79.19;101054.38;1745007;80;21379;-64
2021/07/25 04:01:54;;;;;;;19.12;9.03;;;;;;;21.31;78.88;101055.31;1739661;80;21533;-63
2021/07/25 04:04:21;;;;;;;31.85;9.88;;;;;;;21.46;78.40;101062.81;1742199;80;21606;-64
2021/07/25 04:06:48;;;;;;;31.73;9.40;;;;;;;21.56;77.56;101067.58;1745196;80;21051;-63
2021/07/25 04:09:15;;;;;;;51.10;9.55;;;;;;;21.68;77.14;101063.06;1743451;80;20995;-63
2021/07/25 04:11:42;;;;;;;48.23;10.05;;;;;;;21.79;76.57;101059.50;1744440;80;21045;-63
2021/07/25 04:14:10;;;;;;;75.72;11.38;;;;;;;21.90;75.92;101060.88;1725192;80;21935;-63
2021/07/25 04:16:39;;;;;;;48.58;9.85;;;;;;;22.03;75.49;101060.30;1729822;81;21076;-63
2021/07/25 04:19:06;;;;;;;43.87;10.28;;;;;;;22.15;74.62;101063.04;1724804;80;21104;-63
2021/07/25 04:21:33;;;;;;;44.77;10.58;;;;;;;22.25;74.20;101069.52;1733423;81;21331;-63
2021/07/25 04:24:00;;;;;;;52.35;10.60;;;;;;;22.37;74.06;101072.25;1724617;81;21141;-62
2021/07/25 04:26:28;;;;;;;47.00;10.15;;;;;;;22.51;73.57;101069.31;1730029;81;21134;-63
2021/07/25 04:28:55;;;;;;;56.05;11.60;;;;;;;22.66;72.83;101066.31;1735334;81;21478;-63
2021/07/25 04:31:23;;;;;;;69.35;11.08;;;;;;;22.78;72.08;101069.94;1731747;81;20915;-65
2021/07/25 04:33:53;;;;;;;47.93;10.32;;;;;;;22.85;71.69;101076.11;1728216;81;20901;-64
2021/07/25 04:36:27;;;;;;;64.85;10.90;;;;;;;22.95;71.68;101074.00;1733213;81;21733;-64
2021/07/25 04:38:57;;;;;;;51.35;10.23;;;;;;;23.09;71.42;101072.85;1733692;81;20961;-62
2021/07/25 04:41:27;;;;;;;70.97;10.90;;;;;;;23.24;70.83;101076.16;1704121;82;21055;-61
2021/07/25 04:44:09;;;;;;;73.62;11.18;;;;;;;23.33;70.33;101074.07;1729470;81;20925;-64
2021/07/25 04:46:37;;;;;;;90.97;11.90;;;;;;;23.50;70.43;101076.73;1720643;82;20975;-62
2021/07/25 04:49:17;;;;;;;67.65;11.85;;;;;;;23.66;69.59;101071.33;1722438;82;21947;-61
2021/07/25 04:51:45;;;;;;;50.12;9.60;;;;;;;23.78;68.91;101077.62;1724241;81;21828;-63
2021/07/25 04:54:17;;;;;;;63.33;9.58;;;;;;;23.91;68.41;101076.91;1732975;81;20912;-62
2021/07/25 04:56:59;;;;;;;49.15;9.60;;;;;;;24.03;68.22;101084.09;1728652;81;20860;-63
2021/07/25 04:59:47;;;;;;;64.30;10.78;;;;;;;24.17;67.85;101081.51;1736692;81;20944;-62
2021/07/25 05:02:16;;;;;;;36.75;8.30;;;;;;;24.32;67.54;101086.13;1726179;82;20896;-63
2021/07/25 05:04:44;;;;;;;44.75;8.98;;;;;;;24.46;66.92;101082.68;1730472;81;21024;-62
2021/07/25 05:07:13;;;;;;;29.55;8.08;;;;;;;24.54;67.00;101085.59;1714922;81;21322;-62
2021/07/25 05:09:41;;;;;;;43.17;8.88;;;;;;;24.67;67.04;101088.62;1732892;81;21369;-63
2021/07/25 05:12:23;;;;;;;26.17;8.80;;;;;;;24.80;66.73;101080.18;1725035;82;21284;-63
2021/07/25 05:15:01;;;;;;;19.73;8.28;;;;;;;24.91;66.78;101088.80;1734223;80;20931;-62
2021/07/25 05:18:09;;;;;;;18.25;7.92;;;;;;;25.09;66.54;101090.36;1732977;81;21318;-63
2021/07/25 05:20:57;;;;;;;25.00;8.18;;;;;;;25.26;66.33;101086.05;1722594;81;21043;-65
2021/07/25 05:23:27;;;;;;;17.42;8.38;;;;;;;25.44;65.94;101088.98;1721460;81;21419;-63
2021/07/25 05:25:56;;;;;;;18.25;7.12;;;;;;;25.54;66.05;101086.27;1725497;81;21832;-65
2021/07/25 05:28:24;;;;;;;22.77;7.97;;;;;;;25.70;65.77;101103.01;1723514;81;21134;-64
2021/07/25 05:30:52;;;;;;;20.60;7.33;;;;;;;25.85;64.83;101105.33;1732930;81;21943;-63
2021/07/25 05:33:20;;;;;;;15.03;7.30;;;;;;;25.93;64.68;101095.84;1732826;81;21370;-64
2021/07/25 05:35:47;;;;;;;13.58;7.28;;;;;;;26.02;64.04;101099.09;1729205;81;21440;-64
2021/07/25 05:38:15;;;;;;;15.40;7.30;;;;;;;26.11;63.92;101105.59;1735549;81;20871;-63
2021/07/25 05:40:42;;;;;;;15.70;7.97;;;;;;;26.20;63.50;101109.38;1730077;81;20952;-63
2021/07/25 05:43:09;;;;;;;11.40;7.10;;;;;;;26.23;63.95;101110.45;1735587;81;21413;-64
2021/07/25 05:45:40;;;;;;;20.80;8.25;;;;;;;26.28;63.84;101107.23;1728513;81;20876;-63
2021/07/25 05:48:08;;;;;;;13.30;8.00;;;;;;;26.31;63.98;101111.09;1730415;81;20912;-63
2021/07/25 05:50:35;;;;;;;14.55;7.75;;;;;;;26.36;63.92;101111.50;1727255;81;20901;-64
2021/07/25 05:53:03;;;;;;;15.70;7.22;;;;;;;26.37;63.78;101112.34;1728086;81;20955;-64
2021/07/25 05:55:33;;;;;;;11.10;7.25;;;;;;;26.42;63.92;101114.16;1728948;81;22427;-64
2021/07/25 05:58:00;;;;;;;17.12;8.30;;;;;;;26.44;63.78;101119.84;1730685;81;21563;-64
2021/07/25 06:00:29;;;;;;;19.82;7.65;;;;;;;26.44;63.86;101116.25;1731277;81;21447;-64
2021/07/25 06:03:04;;;;;;;15.05;7.47;;;;;;;26.41;64.48;101113.77;1730030;81;20961;-65
2021/07/25 06:05:36;;;;;;;19.80;7.90;;;;;;;26.48;64.73;101130.05;1730970;81;21122;-65
2021/07/25 06:08:06;;;;;;;14.07;8.05;;;;;;;26.55;64.37;101121.55;1732061;81;21124;-65
2021/07/25 06:10:34;;;;;;;18.82;7.80;;;;;;;26.59;64.62;101127.10;1731862;81;20877;-65
2021/07/25 06:13:03;;;;;;;18.25;8.23;;;;;;;26.66;64.66;101126.52;1726592;82;20954;-65
2021/07/25 06:15:32;;;;;;;23.55;7.87;;;;;;;26.63;65.09;101122.18;1728177;81;21767;-64
2021/07/25 06:18:05;;;;;;;15.93;8.60;;;;;;;26.69;65.37;101122.95;1734190;80;20945;-65
2021/07/25 06:20:32;;;;;;;14.40;7.90;;;;;;;26.81;65.65;101121.39;1733242;80;21318;-64
2021/07/25 06:22:59;;;;;;;14.60;7.72;;;;;;;26.94;65.36;101127.42;1737516;80;21498;-64
2021/07/25 06:25:35;;;;;;;14.35;8.30;;;;;;;27.01;64.91;101124.44;1733623;81;20916;-63
2021/07/25 06:28:03;;;;;;;22.07;8.65;;;;;;;27.09;64.39;101122.80;1736903;80;20882;-63
2021/07/25 06:30:31;;;;;;;20.00;7.97;;;;;;;27.15;64.10;101127.17;1730941;81;20923;-63
2021/07/25 06:33:08;;;;;;;15.13;8.53;;;;;;;27.10;63.83;101122.66;1735130;80;21093;-62
2021/07/25 06:35:38;;;;;;;18.00;8.13;;;;;;;26.97;64.06;101122.13;1726434;81;21414;-63
2021/07/25 06:38:11;;;;;;;29.55;8.53;;;;;;;26.96;64.62;101128.66;1718514;81;20941;-63
2021/07/25 06:40:40;;;;;;;18.50;7.83;;;;;;;26.99;64.59;101131.10;1732535;80;20885;-65
2021/07/25 06:43:09;;;;;;;27.90;9.03;;;;;;;27.06;64.71;101128.61;1736921;80;20922;-62
2021/07/25 06:45:37;;;;;;;16.75;8.80;;;;;;;27.14;64.21;101133.70;1740032;80;21097;-64
2021/07/25 06:48:04;;;;;;;21.55;8.38;;;;;;;27.13;64.49;101127.84;1729945;80;20909;-64
2021/07/25 06:50:31;;;;;;;15.75;8.85;;;;;;;27.18;64.72;101132.87;1733126;80;20985;-64
2021/07/25 06:52:59;;;;;;;16.07;8.80;;;;;;;27.26;64.37;101136.23;1736974;80;21453;-64
2021/07/25 06:55:28;;;;;;;16.23;8.75;;;;;;;27.31;64.33;101132.53;1728939;81;20933;-64
2021/07/25 06:57:55;;;;;;;18.40;9.25;;;;;;;27.40;64.14;101137.09;1732374;81;21726;-64
2021/07/25 07:00:22;;;;;;;17.25;8.58;;;;;;;27.40;64.31;101130.20;1735022;80;21311;-63
2021/07/25 07:02:51;;;;;;;16.10;8.58;;;;;;;27.41;64.49;101133.31;1731714;80;20892;-63
2021/07/25 07:05:20;;;;;;;16.60;9.10;;;;;;;27.46;64.47;101135.61;1721959;80;21158;-64
2021/07/25 07:07:49;;;;;;;22.82;8.90;;;;;;;27.49;64.66;101138.05;1736638;80;20928;-64
2021/07/25 07:10:17;;;;;;;20.10;9.03;;;;;;;27.51;64.59;101137.87;1735978;81;21066;-64
2021/07/25 07:12:45;;;;;;;11.88;9.33;;;;;;;27.50;64.95;101141.15;1737403;80;20943;-64
2021/07/25 07:15:12;;;;;;;15.20;9.38;;;;;;;27.44;64.83;101134.38;1741182;80;20936;-64
2021/07/25 07:17:39;;;;;;;17.00;9.23;;;;;;;27.40;65.12;101138.95;1742320;80;21084;-64
2021/07/25 07:20:09;;;;;;;17.82;9.00;;;;;;;27.39;65.37;101136.73;1739355;80;21391;-64
2021/07/25 07:22:36;;;;;;;15.63;8.28;;;;;;;27.40;65.63;101137.09;1743660;80;21438;-64
2021/07/25 07:25:04;;;;;;;17.50;8.18;;;;;;;27.38;66.34;101136.38;1743890;80;20874;-64
2021/07/25 07:27:33;;;;;;;11.80;7.10;;;;;;;27.44;65.79;101146.77;1746920;80;21483;-65
2021/07/25 07:30:00;;;;;;;12.40;6.92;;;;;;;27.50;65.30;101152.66;1741163;80;21544;-65
2021/07/25 07:32:27;;;;;;;22.65;7.62;;;;;;;27.55;65.04;101153.12;1746543;80;20880;-65
2021/07/25 07:34:55;;;;;;;11.85;7.80;;;;;;;27.62;65.05;101153.33;1751897;80;21961;-65
2021/07/25 07:37:22;;;;;;;14.18;7.50;;;;;;;27.75;64.59;101146.94;1752685;80;20928;-65
2021/07/25 07:39:54;;;;;;;13.55;6.83;;;;;;;27.82;64.42;101147.17;1744465;80;21357;-64
2021/07/25 07:42:21;;;;;;;10.08;7.35;;;;;;;27.81;64.28;101155.09;1741468;81;21101;-65
2021/07/25 07:45:08;;;;;;;13.75;7.22;;;;;;;27.82;63.86;101156.81;1755369;79;21570;-64
2021/07/25 07:47:35;;;;;;;10.38;6.78;;;;;;;27.82;63.08;101152.69;1757085;79;21316;-64
2021/07/25 07:50:02;;;;;;;14.05;7.05;;;;;;;27.86;62.24;101160.98;1758185;79;20885;-64
2021/07/25 07:52:31;;;;;;;11.88;6.65;;;;;;;27.83;61.98;101155.80;1757532;79;21520;-65
2021/07/25 07:54:58;;;;;;;11.57;6.33;;;;;;;27.77;62.30;101158.66;1755393;80;20907;-65
2021/07/25 07:57:27;;;;;;;12.68;6.53;;;;;;;27.71;62.58;101157.39;1761183;79;21905;-63
2021/07/25 07:59:58;;;;;;;11.45;6.33;;;;;;;27.68;62.71;101156.33;1737640;80;21034;-65
2021/07/25 08:02:29;;;;;;;16.87;6.28;;;;;;;27.69;62.10;101164.09;1746996;80;21136;-65
2021/07/25 08:04:57;;;;;;;11.38;5.50;;;;;;;27.76;61.94;101164.34;1739027;80;20989;-65
2021/07/25 08:07:25;;;;;;;17.80;6.17;;;;;;;27.86;60.67;101160.98;1743185;80;21135;-64
2021/07/25 08:09:53;;;;;;;11.80;5.87;;;;;;;27.96;60.38;101164.50;1740344;81;21579;-63
2021/07/25 08:12:20;;;;;;;11.50;5.55;;;;;;;27.98;60.72;101162.48;1741669;81;21532;-63
2021/07/25 08:14:51;;;;;;;11.85;5.50;;;;;;;28.08;60.47;101175.30;1743360;81;21031;-63
2021/07/25 08:17:18;;;;;;;10.98;5.55;;;;;;;28.20;59.21;101167.67;1737013;80;21083;-63
2021/07/25 08:19:45;;;;;;;10.85;5.60;;;;;;;28.27;58.87;101179.78;1728180;81;21067;-63
2021/07/25 08:22:13;;;;;;;8.78;5.42;;;;;;;28.29;58.44;101174.47;1723516;81;20940;-64
2021/07/25 08:24:40;;;;;;;9.05;5.40;;;;;;;28.38;58.47;101178.66;1732202;81;21429;-64
2021/07/25 08:27:10;;;;;;;12.05;5.00;;;;;;;28.38;57.17;101178.66;1725871;81;21047;-65
2021/07/25 08:29:37;;;;;;;11.18;5.28;;;;;;;28.39;55.67;101177.62;1728672;81;21059;-65
2021/07/25 08:32:05;;;;;;;12.00;5.35;;;;;;;28.40;56.63;101179.36;1723966;81;21045;-66
2021/07/25 08:34:33;;;;;;;12.78;5.25;;;;;;;28.46;55.28;101174.59;1729518;81;21499;-63
2021/07/25 08:37:00;;;;;;;9.20;5.67;;;;;;;28.55;55.78;101179.13;1727239;81;21730;-62
2021/07/25 08:39:28;;;;;;;12.47;5.28;;;;;;;28.65;55.65;101175.41;1732011;81;21331;-65
2021/07/25 08:42:09;;;;;;;13.55;4.78;;;;;;;28.70;54.06;101181.30;1726815;81;21623;-65
2021/07/25 08:44:55;;;;;;;11.90;4.75;;;;;;;28.78;53.65;101175.81;1724839;81;21432;-64
2021/07/25 08:47:38;;;;;;;8.73;4.80;;;;;;;28.90;51.37;101174.20;1729963;81;20916;-64
2021/07/25 08:50:14;;;;;;;9.30;4.58;;;;;;;29.01;51.39;101177.53;1729748;81;21081;-63
2021/07/25 08:52:44;;;;;;;11.00;4.40;;;;;;;29.11;51.32;101179.29;1726997;81;20896;-62
2021/07/25 08:55:15;;;;;;;8.48;4.10;;;;;;;29.19;49.87;101178.46;1730700;81;20904;-63
2021/07/25 08:57:46;;;;;;;8.68;4.67;;;;;;;29.23;48.34;101174.33;1736693;81;20880;-65
2021/07/25 09:00:15;;;;;;;18.85;5.67;;;;;;;29.21;49.72;101173.64;1733267;81;20908;-64
2021/07/25 09:02:43;;;;;;;10.18;4.20;;;;;;;29.13;50.72;101175.34;1727973;81;21409;-64
2021/07/25 09:05:11;;;;;;;7.55;3.80;;;;;;;29.06;50.17;101172.03;1694742;83;20978;-64
2021/07/25 09:07:42;;;;;;;7.17;3.95;;;;;;;29.11;48.09;101173.27;1733481;81;20872;-63
2021/07/25 09:15:16;;;;;;;9.05;4.50;;;;;;;29.23;49.74;101169.69;1681405;83;21075;-64
2021/07/25 09:17:43;;;;;;;8.80;4.75;;;;;;;29.25;50.18;101172.27;1681263;83;21549;-64
2021/07/25 09:20:17;;;;;;;9.68;4.70;;;;;;;29.23;49.92;101177.09;1709338;81;20912;-66
2021/07/25 09:22:58;;;;;;;12.40;4.23;;;;;;;29.10;50.01;101172.92;1713114;81;21523;-64
2021/07/25 09:25:29;;;;;;;6.60;3.85;;;;;;;29.04;48.33;101169.95;1714478;82;21774;-65
2021/07/25 09:30:29;;;;;;;10.45;4.40;;;;;;;29.20;48.00;101180.19;1719527;81;21074;-65
2021/07/25 09:32:56;;;;;;;6.85;4.50;;;;;;;29.25;48.58;101184.69;1727567;81;20887;-63
2021/07/25 09:35:35;;;;;;;10.88;4.60;;;;;;;29.25;49.08;101185.57;1717837;81;21442;-66
2021/07/25 09:40:46;;;;;;;6.83;3.70;;;;;;;29.23;45.49;101188.13;1723793;81;21342;-64
2021/07/25 09:43:20;;;;;;;11.65;4.17;;;;;;;29.24;44.15;101185.72;1722559;81;20892;-66
2021/07/25 09:45:59;;;;;;;7.20;4.78;;;;;;;29.27;45.31;101186.77;1725691;81;20965;-64
2021/07/25 09:48:33;;;;;;;11.38;4.03;;;;;;;29.31;46.41;101193.17;1717780;81;21503;-64
2021/07/25 09:51:20;;;;;;;10.30;4.23;;;;;;;29.38;45.36;101186.98;1719330;81;20876;-65
2021/07/25 09:53:51;;;;;;;8.65;3.72;;;;;;;29.42;46.06;101192.03;1722519;81;21752;-63
2021/07/25 09:56:20;;;;;;;8.78;3.75;;;;;;;29.48;46.22;101182.72;1719023;81;20979;-64
2021/07/25 09:58:47;;;;;;;5.60;3.77;;;;;;;29.51;45.40;101187.91;1715874;81;21546;-64
2021/07/25 10:01:37;;;;;;;9.85;3.80;;;;;;;29.47;45.10;101190.66;1716848;81;21403;-64
2021/07/25 10:04:23;;;;;;;8.65;3.50;;;;;;;29.41;44.64;101187.55;1708460;81;20923;-65
2021/07/25 10:06:54;;;;;;;8.08;3.58;;;;;;;29.40;44.42;101184.41;1716970;81;20861;-66
2021/07/25 10:09:22;;;;;;;6.40;4.08;;;;;;;29.40;44.05;101185.78;1722058;81;21042;-65
2021/07/25 10:12:01;;;;;;;8.25;4.10;;;;;;;29.39;43.61;101183.18;1715458;81;21342;-64
2021/07/25 10:14:31;;;;;;;7.50;3.90;;;;;;;29.36;43.22;101178.88;1704716;81;21098;-64
2021/07/25 10:16:59;;;;;;;6.67;3.37;;;;;;;29.34;44.52;101180.95;1723398;81;20901;-64
2021/07/25 10:21:59;;;;;;;5.03;3.10;;;;;;;29.27;41.91;101184.88;1732629;81;21324;-63
2021/07/25 10:24:26;;;;;;;7.37;3.12;;;;;;;29.28;42.62;101181.59;1723340;81;20849;-65
2021/07/25 10:26:55;;;;;;;6.97;3.33;;;;;;;29.28;40.69;101185.73;1721023;81;21317;-65
2021/07/25 10:29:24;;;;;;;6.25;3.25;;;;;;;29.29;41.10;101187.46;1728829;81;20979;-63
2021/07/25 10:31:51;;;;;;;6.55;3.60;;;;;;;29.30;42.02;101180.94;1695379;82;21079;-63
2021/07/25 10:34:22;;;;;;;8.75;3.90;;;;;;;29.36;42.66;101176.11;1729988;81;20907;-63
2021/07/25 10:36:51;;;;;;;9.03;3.87;;;;;;;29.43;43.19;101179.95;1696178;82;21449;-63
2021/07/25 10:39:20;;;;;;;5.67;3.35;;;;;;;29.46;42.27;101174.62;1665243;84;20994;-63
2021/07/25 10:41:49;;;;;;;5.72;3.20;;;;;;;29.48;41.43;101175.81;1699143;82;20948;-63
2021/07/25 10:44:17;;;;;;;5.47;3.22;;;;;;;29.49;40.46;101178.42;1728098;81;21019;-63
2021/07/25 10:46:45;;;;;;;8.95;3.40;;;;;;;29.51;40.78;101179.62;1729571;81;20964;-63
2021/07/25 10:49:12;;;;;;;7.05;3.10;;;;;;;29.50;40.01;101174.62;1728716;81;20907;-63
2021/07/25 10:52:02;;;;;;;7.30;3.02;;;;;;;29.51;40.49;101174.09;1729622;81;21374;-63
2021/07/25 10:54:31;;;;;;;6.65;3.10;;;;;;;29.53;39.80;101176.20;1723115;82;21380;-62
2021/07/25 10:57:11;;;;;;;5.75;3.00;;;;;;;29.52;39.39;101185.52;1731140;81;21057;-62
2021/07/25 10:59:52;;;;;;;5.28;3.10;;;;;;;29.50;39.18;101184.80;1724363;81;21321;-62
2021/07/25 11:02:32;;;;;;;7.08;2.80;;;;;;;29.48;39.23;101184.11;1731126;81;20900;-62
2021/07/25 11:05:02;;;;;;;3.83;2.85;;;;;;;29.42;38.63;101183.75;1724574;81;20900;-60
2021/07/25 11:07:33;;;;;;;8.28;3.08;;;;;;;29.42;38.42;101186.52;1721567;81;20937;-62
2021/07/25 11:10:05;;;;;;;4.90;3.05;;;;;;;29.45;38.63;101187.55;1722547;81;21135;-64
2021/07/25 11:12:56;;;;;;;8.83;3.27;;;;;;;29.47;38.62;101191.55;1735259;81;20936;-64
2021/07/25 11:15:35;;;;;;;6.87;3.30;;;;;;;29.50;38.13;101188.94;1730041;81;21539;-63
2021/07/25 11:18:11;;;;;;;10.03;2.90;;;;;;;29.52;38.33;101189.66;1730559;81;21412;-62
2021/07/25 11:23:43;;;;;;;8.23;3.42;;;;;;;29.52;37.91;101188.28;1686169;83;21868;-62
2021/07/25 11:26:32;;;;;;;7.47;3.12;;;;;;;29.53;38.38;101180.34;1694375;82;21497;-63
2021/07/25 11:29:06;;;;;;;11.83;3.30;;;;;;;29.50;38.14;101186.17;1684069;83;21477;-63
2021/07/25 11:31:37;;;;;;;9.78;3.20;;;;;;;29.47;37.93;101186.52;1683207;83;20929;-62
2021/07/25 11:34:07;;;;;;;7.95;3.27;;;;;;;29.44;37.76;101178.92;1683010;83;21524;-63
2021/07/25 11:36:34;;;;;;;4.97;3.30;;;;;;;29.44;37.43;101176.69;1687301;83;21091;-62
2021/07/25 11:39:04;;;;;;;6.35;3.45;;;;;;;29.44;37.51;101173.93;1685591;83;20921;-63
2021/07/25 11:41:36;;;;;;;4.62;3.77;;;;;;;29.42;37.33;101175.47;1689229;83;20880;-63
2021/07/25 11:44:42;;;;;;;7.60;3.50;;;;;;;29.44;37.22;101176.16;1688075;83;21335;-62
2021/07/25 11:47:08;;;;;;;6.75;3.90;;;;;;;29.48;36.95;101181.34;1657432;84;21030;-62
2021/07/25 11:49:40;;;;;;;7.50;4.15;;;;;;;29.52;37.22;101175.86;1680014;83;21084;-62
2021/07/25 11:52:10;;;;;;;7.22;3.62;;;;;;;29.55;37.17;101176.36;1684912;83;21486;-63
2021/07/25 11:54:43;;;;;;;10.85;3.72;;;;;;;29.57;36.70;101180.34;1682964;83;20948;-62